sensor_id;sensor_type;location;lat;lon;timestamp;P1;durP1;ratioP1;P2;durP2;ratioP2
9799;SDS011;4939;52.00085300;4.17406100;2023-08-30T00:00:09;6.43;;;3.47;;
9799;SDS011;4939;52.00085300;4.17406100;2023-08-30T00:02:36;6.63;;;3.28;;
9799;SDS011;4939;52.00085300;4.17406100;2023-08-30T00:05:02;6.93;;;3.22;;
9799;SDS011;4939;52.00085300;4.17406100;2023-08-30T00:07:29;8.05;;;3.40;;
9799;SDS011;4939;52.00085300;4.17406100;2023-08-30T00:09:58;6.85;;;3.17;;
9799;SDS011;4939;52.00085300;4.17406100;2023-08-30T00:12:24;8.70;;;3.33;;
9799;SDS011;4939;52.00085300;4.17406100;2023-08-30T00:14:51;7.18;;;3.13;;
9799;SDS011;4939;52.00085300;4.17406100;2023-08-30T00:17:17;6.95;;;3.35;;
9799;SDS011;4939;52.00085300;4.17406100;2023-08-30T00:19:42;6.47;;;3.20;;
9799;SDS011;4939;52.00085300;4.17406100;2023-08-30T00:22:08;8.68;;;3.88;;
9799;SDS011;4939;52.00085300;4.17406100;2023-08-30T00:24:35;8.52;;;3.30;;
9799;SDS011;4939;52.00085300;4.17406100;2023-08-30T00:27:01;7.40;;;3.40;;
9799;SDS011;4939;52.00085300;4.17406100;2023-08-30T00:29:28;6.25;;;3.40;;
9799;SDS011;4939;52.00085300;4.17406100;2023-08-30T00:31:54;10.32;;;3.80;;
9799;SDS011;4939;52.00085300;4.17406100;2023-08-30T00:34:20;9.57;;;3.42;;
9799;SDS011;4939;52.00085300;4.17406100;2023-08-30T00:36:45;7.43;;;3.33;;
9799;SDS011;4939;52.00085300;4.17406100;2023-08-30T00:39:11;7.97;;;3.33;;
9799;SDS011;4939;52.00085300;4.17406100;2023-08-30T00:41:38;8.25;;;3.10;;
9799;SDS011;4939;52.00085300;4.17406100;2023-08-30T00:44:04;8.32;;;3.38;;
9799;SDS011;4939;52.00085300;4.17406100;2023-08-30T00:46:30;6.82;;;3.22;;
9799;SDS011;4939;52.00085300;4.17406100;2023-08-30T00:48:58;10.55;;;3.90;;
9799;SDS011;4939;52.00085300;4.17406100;2023-08-30T00:51:24;12.50;;;4.35;;
9799;SDS011;4939;52.00085300;4.17406100;2023-08-30T00:53:50;8.45;;;4.10;;
9799;SDS011;4939;52.00085300;4.17406100;2023-08-30T00:56:16;9.55;;;4.18;;
9799;SDS011;4939;52.00085300;4.17406100;2023-08-30T00:58:43;13.73;;;4.53;;
9799;SDS011;4939;52.00085300;4.17406100;2023-08-30T01:01:09;9.50;;;4.20;;
9799;SDS011;4939;52.00085300;4.17406100;2023-08-30T01:03:35;9.00;;;4.20;;
9799;SDS011;4939;52.00085300;4.17406100;2023-08-30T01:06:02;8.48;;;4.22;;
9799;SDS011;4939;52.00085300;4.17406100;2023-08-30T01:08:28;13.10;;;4.78;;
9799;SDS011;4939;52.00085300;4.17406100;2023-08-30T01:13:26;11.43;;;4.00;;
9799;SDS011;4939;52.00085300;4.17406100;2023-08-30T01:15:55;11.43;;;4.15;;
9799;SDS011;4939;52.00085300;4.17406100;2023-08-30T01:18:25;9.95;;;3.75;;
9799;SDS011;4939;52.00085300;4.17406100;2023-08-30T01:20:52;7.63;;;3.75;;
9799;SDS011;4939;52.00085300;4.17406100;2023-08-30T01:23:40;10.15;;;4.18;;
9799;SDS011;4939;52.00085300;4.17406100;2023-08-30T01:26:20;9.90;;;4.07;;
9799;SDS011;4939;52.00085300;4.17406100;2023-08-30T01:29:08;9.82;;;3.83;;
9799;SDS011;4939;52.00085300;4.17406100;2023-08-30T01:31:36;10.45;;;4.25;;
9799;SDS011;4939;52.00085300;4.17406100;2023-08-30T01:34:05;8.93;;;4.00;;
9799;SDS011;4939;52.00085300;4.17406100;2023-08-30T01:36:31;15.48;;;4.47;;
9799;SDS011;4939;52.00085300;4.17406100;2023-08-30T01:38:58;7.80;;;3.60;;
9799;SDS011;4939;52.00085300;4.17406100;2023-08-30T01:41:25;12.25;;;4.78;;
9799;SDS011;4939;52.00085300;4.17406100;2023-08-30T01:43:52;11.63;;;4.10;;
9799;SDS011;4939;52.00085300;4.17406100;2023-08-30T01:46:20;8.32;;;3.95;;
9799;SDS011;4939;52.00085300;4.17406100;2023-08-30T01:48:47;11.25;;;4.85;;
9799;SDS011;4939;52.00085300;4.17406100;2023-08-30T01:51:17;9.77;;;4.18;;
9799;SDS011;4939;52.00085300;4.17406100;2023-08-30T01:53:44;10.98;;;4.43;;
9799;SDS011;4939;52.00085300;4.17406100;2023-08-30T01:56:11;11.52;;;5.28;;
9799;SDS011;4939;52.00085300;4.17406100;2023-08-30T01:58:36;11.77;;;4.90;;
9799;SDS011;4939;52.00085300;4.17406100;2023-08-30T02:01:02;12.93;;;5.60;;
9799;SDS011;4939;52.00085300;4.17406100;2023-08-30T02:03:28;12.45;;;5.13;;
9799;SDS011;4939;52.00085300;4.17406100;2023-08-30T02:06:03;13.07;;;5.47;;
9799;SDS011;4939;52.00085300;4.17406100;2023-08-30T02:08:50;11.52;;;5.82;;
9799;SDS011;4939;52.00085300;4.17406100;2023-08-30T02:11:27;13.20;;;6.45;;
9799;SDS011;4939;52.00085300;4.17406100;2023-08-30T02:13:54;13.68;;;6.30;;
9799;SDS011;4939;52.00085300;4.17406100;2023-08-30T02:16:22;15.65;;;5.70;;
9799;SDS011;4939;52.00085300;4.17406100;2023-08-30T02:18:50;13.68;;;6.07;;
9799;SDS011;4939;52.00085300;4.17406100;2023-08-30T02:21:16;16.10;;;6.25;;
9799;SDS011;4939;52.00085300;4.17406100;2023-08-30T02:23:43;14.10;;;6.47;;
9799;SDS011;4939;52.00085300;4.17406100;2023-08-30T02:26:09;14.60;;;6.05;;
9799;SDS011;4939;52.00085300;4.17406100;2023-08-30T02:28:34;11.95;;;6.03;;
9799;SDS011;4939;52.00085300;4.17406100;2023-08-30T02:31:00;12.25;;;5.30;;
9799;SDS011;4939;52.00085300;4.17406100;2023-08-30T02:33:26;12.85;;;6.20;;
9799;SDS011;4939;52.00085300;4.17406100;2023-08-30T02:35:52;13.23;;;6.28;;
9799;SDS011;4939;52.00085300;4.17406100;2023-08-30T02:38:19;14.85;;;6.30;;
9799;SDS011;4939;52.00085300;4.17406100;2023-08-30T02:40:44;13.38;;;6.07;;
9799;SDS011;4939;52.00085300;4.17406100;2023-08-30T02:43:10;13.98;;;6.38;;
9799;SDS011;4939;52.00085300;4.17406100;2023-08-30T02:45:36;11.77;;;5.60;;
9799;SDS011;4939;52.00085300;4.17406100;2023-08-30T02:48:02;14.50;;;6.45;;
9799;SDS011;4939;52.00085300;4.17406100;2023-08-30T02:50:28;13.82;;;6.57;;
9799;SDS011;4939;52.00085300;4.17406100;2023-08-30T02:52:54;16.42;;;6.50;;
9799;SDS011;4939;52.00085300;4.17406100;2023-08-30T02:55:19;13.85;;;6.25;;
9799;SDS011;4939;52.00085300;4.17406100;2023-08-30T02:57:45;12.25;;;5.95;;
9799;SDS011;4939;52.00085300;4.17406100;2023-08-30T03:00:11;12.15;;;6.03;;
9799;SDS011;4939;52.00085300;4.17406100;2023-08-30T03:02:38;13.20;;;5.78;;
9799;SDS011;4939;52.00085300;4.17406100;2023-08-30T03:05:03;14.60;;;6.30;;
9799;SDS011;4939;52.00085300;4.17406100;2023-08-30T03:07:30;12.02;;;6.32;;
9799;SDS011;4939;52.00085300;4.17406100;2023-08-30T03:09:56;12.57;;;6.22;;
9799;SDS011;4939;52.00085300;4.17406100;2023-08-30T03:12:22;12.75;;;6.55;;
9799;SDS011;4939;52.00085300;4.17406100;2023-08-30T03:14:48;13.07;;;6.60;;
9799;SDS011;4939;52.00085300;4.17406100;2023-08-30T03:17:13;11.43;;;6.28;;
9799;SDS011;4939;52.00085300;4.17406100;2023-08-30T03:19:39;13.30;;;6.25;;
9799;SDS011;4939;52.00085300;4.17406100;2023-08-30T03:22:04;13.32;;;6.68;;
9799;SDS011;4939;52.00085300;4.17406100;2023-08-30T03:24:30;12.02;;;6.32;;
9799;SDS011;4939;52.00085300;4.17406100;2023-08-30T03:26:56;14.75;;;6.00;;
9799;SDS011;4939;52.00085300;4.17406100;2023-08-30T03:29:21;12.43;;;5.90;;
9799;SDS011;4939;52.00085300;4.17406100;2023-08-30T03:31:47;10.73;;;5.50;;
9799;SDS011;4939;52.00085300;4.17406100;2023-08-30T03:34:13;12.57;;;5.93;;
9799;SDS011;4939;52.00085300;4.17406100;2023-08-30T03:36:40;12.20;;;5.63;;
9799;SDS011;4939;52.00085300;4.17406100;2023-08-30T03:39:07;13.77;;;6.30;;
9799;SDS011;4939;52.00085300;4.17406100;2023-08-30T03:41:33;10.77;;;5.78;;
9799;SDS011;4939;52.00085300;4.17406100;2023-08-30T03:43:59;11.95;;;6.30;;
9799;SDS011;4939;52.00085300;4.17406100;2023-08-30T03:46:24;14.90;;;6.70;;
9799;SDS011;4939;52.00085300;4.17406100;2023-08-30T03:48:50;12.18;;;6.53;;
9799;SDS011;4939;52.00085300;4.17406100;2023-08-30T03:51:17;14.43;;;6.93;;
9799;SDS011;4939;52.00085300;4.17406100;2023-08-30T03:53:42;13.15;;;6.75;;
9799;SDS011;4939;52.00085300;4.17406100;2023-08-30T03:56:08;13.40;;;7.07;;
9799;SDS011;4939;52.00085300;4.17406100;2023-08-30T03:58:34;18.75;;;7.00;;
9799;SDS011;4939;52.00085300;4.17406100;2023-08-30T04:00:59;15.35;;;7.03;;
9799;SDS011;4939;52.00085300;4.17406100;2023-08-30T04:03:25;13.23;;;6.55;;
9799;SDS011;4939;52.00085300;4.17406100;2023-08-30T04:05:54;16.42;;;6.90;;
9799;SDS011;4939;52.00085300;4.17406100;2023-08-30T04:08:21;12.15;;;6.50;;
9799;SDS011;4939;52.00085300;4.17406100;2023-08-30T04:10:47;16.00;;;6.53;;
9799;SDS011;4939;52.00085300;4.17406100;2023-08-30T04:13:14;14.73;;;7.15;;
9799;SDS011;4939;52.00085300;4.17406100;2023-08-30T04:15:40;14.98;;;7.32;;
9799;SDS011;4939;52.00085300;4.17406100;2023-08-30T04:18:06;14.32;;;6.75;;
9799;SDS011;4939;52.00085300;4.17406100;2023-08-30T04:20:32;14.80;;;6.57;;
9799;SDS011;4939;52.00085300;4.17406100;2023-08-30T04:22:58;15.07;;;6.88;;
9799;SDS011;4939;52.00085300;4.17406100;2023-08-30T04:25:27;16.48;;;6.82;;
9799;SDS011;4939;52.00085300;4.17406100;2023-08-30T04:27:53;15.98;;;7.55;;
9799;SDS011;4939;52.00085300;4.17406100;2023-08-30T04:30:18;13.60;;;6.80;;
9799;SDS011;4939;52.00085300;4.17406100;2023-08-30T04:32:44;18.10;;;7.03;;
9799;SDS011;4939;52.00085300;4.17406100;2023-08-30T04:35:10;12.43;;;6.53;;
9799;SDS011;4939;52.00085300;4.17406100;2023-08-30T04:37:35;13.77;;;6.80;;
9799;SDS011;4939;52.00085300;4.17406100;2023-08-30T04:40:03;16.33;;;6.80;;
9799;SDS011;4939;52.00085300;4.17406100;2023-08-30T04:42:30;14.00;;;6.82;;
9799;SDS011;4939;52.00085300;4.17406100;2023-08-30T04:44:56;13.82;;;6.57;;
9799;SDS011;4939;52.00085300;4.17406100;2023-08-30T04:47:24;16.60;;;6.53;;
9799;SDS011;4939;52.00085300;4.17406100;2023-08-30T04:49:50;17.52;;;7.47;;
9799;SDS011;4939;52.00085300;4.17406100;2023-08-30T04:52:17;14.70;;;7.03;;
9799;SDS011;4939;52.00085300;4.17406100;2023-08-30T04:54:42;17.77;;;8.15;;
9799;SDS011;4939;52.00085300;4.17406100;2023-08-30T04:57:10;19.75;;;8.93;;
9799;SDS011;4939;52.00085300;4.17406100;2023-08-30T04:59:39;19.65;;;8.75;;
9799;SDS011;4939;52.00085300;4.17406100;2023-08-30T05:02:05;22.25;;;9.05;;
9799;SDS011;4939;52.00085300;4.17406100;2023-08-30T05:04:31;18.67;;;8.70;;
9799;SDS011;4939;52.00085300;4.17406100;2023-08-30T05:06:57;19.13;;;8.50;;
9799;SDS011;4939;52.00085300;4.17406100;2023-08-30T05:09:23;18.63;;;8.73;;
9799;SDS011;4939;52.00085300;4.17406100;2023-08-30T05:11:50;22.27;;;8.90;;
9799;SDS011;4939;52.00085300;4.17406100;2023-08-30T05:14:16;21.77;;;8.95;;
9799;SDS011;4939;52.00085300;4.17406100;2023-08-30T05:16:42;22.10;;;9.07;;
9799;SDS011;4939;52.00085300;4.17406100;2023-08-30T05:19:07;22.58;;;9.38;;
9799;SDS011;4939;52.00085300;4.17406100;2023-08-30T05:21:34;23.40;;;9.43;;
9799;SDS011;4939;52.00085300;4.17406100;2023-08-30T05:23:59;24.67;;;10.32;;
9799;SDS011;4939;52.00085300;4.17406100;2023-08-30T05:26:26;24.13;;;9.85;;
9799;SDS011;4939;52.00085300;4.17406100;2023-08-30T05:28:51;22.67;;;9.63;;
9799;SDS011;4939;52.00085300;4.17406100;2023-08-30T05:31:18;24.27;;;10.02;;
9799;SDS011;4939;52.00085300;4.17406100;2023-08-30T05:33:45;22.98;;;10.43;;
9799;SDS011;4939;52.00085300;4.17406100;2023-08-30T05:36:11;24.58;;;10.18;;
9799;SDS011;4939;52.00085300;4.17406100;2023-08-30T05:38:37;26.73;;;10.45;;
9799;SDS011;4939;52.00085300;4.17406100;2023-08-30T05:41:03;24.73;;;10.52;;
9799;SDS011;4939;52.00085300;4.17406100;2023-08-30T05:43:29;25.23;;;9.95;;
9799;SDS011;4939;52.00085300;4.17406100;2023-08-30T05:45:56;23.00;;;9.63;;
9799;SDS011;4939;52.00085300;4.17406100;2023-08-30T05:48:27;23.67;;;10.30;;
9799;SDS011;4939;52.00085300;4.17406100;2023-08-30T05:50:53;24.33;;;10.10;;
9799;SDS011;4939;52.00085300;4.17406100;2023-08-30T05:53:18;22.48;;;9.55;;
9799;SDS011;4939;52.00085300;4.17406100;2023-08-30T05:55:44;23.15;;;8.95;;
9799;SDS011;4939;52.00085300;4.17406100;2023-08-30T05:58:10;23.58;;;9.35;;
9799;SDS011;4939;52.00085300;4.17406100;2023-08-30T06:00:36;22.67;;;9.30;;
9799;SDS011;4939;52.00085300;4.17406100;2023-08-30T06:03:01;23.65;;;9.52;;
9799;SDS011;4939;52.00085300;4.17406100;2023-08-30T06:05:28;20.90;;;8.77;;
9799;SDS011;4939;52.00085300;4.17406100;2023-08-30T06:07:54;21.25;;;9.27;;
9799;SDS011;4939;52.00085300;4.17406100;2023-08-30T06:10:19;30.65;;;9.68;;
9799;SDS011;4939;52.00085300;4.17406100;2023-08-30T06:12:45;19.10;;;8.23;;
9799;SDS011;4939;52.00085300;4.17406100;2023-08-30T06:15:11;16.35;;;7.63;;
9799;SDS011;4939;52.00085300;4.17406100;2023-08-30T06:17:37;14.88;;;7.13;;
9799;SDS011;4939;52.00085300;4.17406100;2023-08-30T06:20:03;13.75;;;6.72;;
9799;SDS011;4939;52.00085300;4.17406100;2023-08-30T06:22:29;16.90;;;7.93;;
9799;SDS011;4939;52.00085300;4.17406100;2023-08-30T06:24:55;22.15;;;7.40;;
9799;SDS011;4939;52.00085300;4.17406100;2023-08-30T06:27:21;16.55;;;7.28;;
9799;SDS011;4939;52.00085300;4.17406100;2023-08-30T06:29:48;14.60;;;6.93;;
9799;SDS011;4939;52.00085300;4.17406100;2023-08-30T06:32:13;14.70;;;6.15;;
9799;SDS011;4939;52.00085300;4.17406100;2023-08-30T06:34:39;12.48;;;6.00;;
9799;SDS011;4939;52.00085300;4.17406100;2023-08-30T06:37:05;10.30;;;5.20;;
9799;SDS011;4939;52.00085300;4.17406100;2023-08-30T06:39:34;11.25;;;5.07;;
9799;SDS011;4939;52.00085300;4.17406100;2023-08-30T06:42:00;9.57;;;4.68;;
9799;SDS011;4939;52.00085300;4.17406100;2023-08-30T06:44:26;9.35;;;4.65;;
9799;SDS011;4939;52.00085300;4.17406100;2023-08-30T06:46:53;11.35;;;4.03;;
9799;SDS011;4939;52.00085300;4.17406100;2023-08-30T06:49:19;9.82;;;3.92;;
9799;SDS011;4939;52.00085300;4.17406100;2023-08-30T06:51:45;6.25;;;3.10;;
9799;SDS011;4939;52.00085300;4.17406100;2023-08-30T06:54:10;6.30;;;3.33;;
9799;SDS011;4939;52.00085300;4.17406100;2023-08-30T06:56:36;5.53;;;2.50;;
9799;SDS011;4939;52.00085300;4.17406100;2023-08-30T06:59:02;5.28;;;3.00;;
9799;SDS011;4939;52.00085300;4.17406100;2023-08-30T07:01:28;6.47;;;3.00;;
9799;SDS011;4939;52.00085300;4.17406100;2023-08-30T07:03:53;6.03;;;2.95;;
9799;SDS011;4939;52.00085300;4.17406100;2023-08-30T07:06:19;7.13;;;3.30;;
9799;SDS011;4939;52.00085300;4.17406100;2023-08-30T07:08:45;5.03;;;2.70;;
9799;SDS011;4939;52.00085300;4.17406100;2023-08-30T07:11:11;7.28;;;2.90;;
9799;SDS011;4939;52.00085300;4.17406100;2023-08-30T07:13:36;4.68;;;2.55;;
9799;SDS011;4939;52.00085300;4.17406100;2023-08-30T07:16:02;6.47;;;3.03;;
9799;SDS011;4939;52.00085300;4.17406100;2023-08-30T07:18:29;6.45;;;3.10;;
9799;SDS011;4939;52.00085300;4.17406100;2023-08-30T07:20:55;4.55;;;2.80;;
9799;SDS011;4939;52.00085300;4.17406100;2023-08-30T07:23:20;6.90;;;3.30;;
9799;SDS011;4939;52.00085300;4.17406100;2023-08-30T07:25:46;6.93;;;3.78;;
9799;SDS011;4939;52.00085300;4.17406100;2023-08-30T07:28:13;6.22;;;4.05;;
9799;SDS011;4939;52.00085300;4.17406100;2023-08-30T07:30:39;8.88;;;4.93;;
9799;SDS011;4939;52.00085300;4.17406100;2023-08-30T07:33:05;9.15;;;4.60;;
9799;SDS011;4939;52.00085300;4.17406100;2023-08-30T07:35:31;8.82;;;4.95;;
9799;SDS011;4939;52.00085300;4.17406100;2023-08-30T07:37:57;7.25;;;4.32;;
9799;SDS011;4939;52.00085300;4.17406100;2023-08-30T07:40:23;7.38;;;4.65;;
9799;SDS011;4939;52.00085300;4.17406100;2023-08-30T07:42:51;6.32;;;3.83;;
9799;SDS011;4939;52.00085300;4.17406100;2023-08-30T07:45:17;5.47;;;3.40;;
9799;SDS011;4939;52.00085300;4.17406100;2023-08-30T07:47:43;5.47;;;2.97;;
9799;SDS011;4939;52.00085300;4.17406100;2023-08-30T07:50:09;7.70;;;3.10;;
9799;SDS011;4939;52.00085300;4.17406100;2023-08-30T07:52:35;5.65;;;3.30;;
9799;SDS011;4939;52.00085300;4.17406100;2023-08-30T07:55:01;5.03;;;2.67;;
9799;SDS011;4939;52.00085300;4.17406100;2023-08-30T07:57:27;4.45;;;2.40;;
9799;SDS011;4939;52.00085300;4.17406100;2023-08-30T07:59:52;3.63;;;1.70;;
9799;SDS011;4939;52.00085300;4.17406100;2023-08-30T08:02:19;3.85;;;1.90;;
9799;SDS011;4939;52.00085300;4.17406100;2023-08-30T08:04:44;3.42;;;1.77;;
9799;SDS011;4939;52.00085300;4.17406100;2023-08-30T08:07:10;4.30;;;1.90;;
9799;SDS011;4939;52.00085300;4.17406100;2023-08-30T08:09:35;3.47;;;1.60;;
9799;SDS011;4939;52.00085300;4.17406100;2023-08-30T08:12:02;6.30;;;1.92;;
9799;SDS011;4939;52.00085300;4.17406100;2023-08-30T08:14:28;4.47;;;2.20;;
9799;SDS011;4939;52.00085300;4.17406100;2023-08-30T08:16:54;6.28;;;1.75;;
9799;SDS011;4939;52.00085300;4.17406100;2023-08-30T08:19:20;5.60;;;1.92;;
9799;SDS011;4939;52.00085300;4.17406100;2023-08-30T08:21:46;3.08;;;1.80;;
9799;SDS011;4939;52.00085300;4.17406100;2023-08-30T08:24:13;4.07;;;1.73;;
9799;SDS011;4939;52.00085300;4.17406100;2023-08-30T08:26:38;4.95;;;1.67;;
9799;SDS011;4939;52.00085300;4.17406100;2023-08-30T08:29:04;5.50;;;1.98;;
9799;SDS011;4939;52.00085300;4.17406100;2023-08-30T08:31:30;5.28;;;2.20;;
9799;SDS011;4939;52.00085300;4.17406100;2023-08-30T08:34:06;4.43;;;1.90;;
9799;SDS011;4939;52.00085300;4.17406100;2023-08-30T08:36:34;4.78;;;1.77;;
9799;SDS011;4939;52.00085300;4.17406100;2023-08-30T08:39:00;5.05;;;2.05;;
9799;SDS011;4939;52.00085300;4.17406100;2023-08-30T08:41:30;4.90;;;2.05;;
9799;SDS011;4939;52.00085300;4.17406100;2023-08-30T08:44:06;6.68;;;1.75;;
9799;SDS011;4939;52.00085300;4.17406100;2023-08-30T08:46:32;7.47;;;2.20;;
9799;SDS011;4939;52.00085300;4.17406100;2023-08-30T08:49:08;4.97;;;2.25;;
9799;SDS011;4939;52.00085300;4.17406100;2023-08-30T08:51:34;6.82;;;2.40;;
9799;SDS011;4939;52.00085300;4.17406100;2023-08-30T08:54:02;6.78;;;2.20;;
9799;SDS011;4939;52.00085300;4.17406100;2023-08-30T08:56:29;6.22;;;2.25;;
9799;SDS011;4939;52.00085300;4.17406100;2023-08-30T08:58:56;7.53;;;2.17;;
9799;SDS011;4939;52.00085300;4.17406100;2023-08-30T09:01:22;6.80;;;2.05;;
9799;SDS011;4939;52.00085300;4.17406100;2023-08-30T09:03:50;7.75;;;2.22;;
9799;SDS011;4939;52.00085300;4.17406100;2023-08-30T09:06:15;8.75;;;2.40;;
9799;SDS011;4939;52.00085300;4.17406100;2023-08-30T09:08:41;10.73;;;2.10;;
9799;SDS011;4939;52.00085300;4.17406100;2023-08-30T09:11:07;7.55;;;2.45;;
9799;SDS011;4939;52.00085300;4.17406100;2023-08-30T09:13:33;14.00;;;2.28;;
9799;SDS011;4939;52.00085300;4.17406100;2023-08-30T09:15:59;6.28;;;2.28;;
9799;SDS011;4939;52.00085300;4.17406100;2023-08-30T09:18:25;6.80;;;1.92;;
9799;SDS011;4939;52.00085300;4.17406100;2023-08-30T09:20:53;7.72;;;2.33;;
9799;SDS011;4939;52.00085300;4.17406100;2023-08-30T09:23:22;4.75;;;1.90;;
9799;SDS011;4939;52.00085300;4.17406100;2023-08-30T09:25:55;5.40;;;2.17;;
9799;SDS011;4939;52.00085300;4.17406100;2023-08-30T09:28:21;6.75;;;1.83;;
9799;SDS011;4939;52.00085300;4.17406100;2023-08-30T09:30:50;6.13;;;2.03;;
9799;SDS011;4939;52.00085300;4.17406100;2023-08-30T09:33:23;10.30;;;2.08;;
9799;SDS011;4939;52.00085300;4.17406100;2023-08-30T09:35:56;6.50;;;1.45;;
9799;SDS011;4939;52.00085300;4.17406100;2023-08-30T09:38:23;7.20;;;1.65;;
9799;SDS011;4939;52.00085300;4.17406100;2023-08-30T09:40:48;10.60;;;2.30;;
9799;SDS011;4939;52.00085300;4.17406100;2023-08-30T09:43:17;7.13;;;1.60;;
9799;SDS011;4939;52.00085300;4.17406100;2023-08-30T09:45:44;9.82;;;1.70;;
9799;SDS011;4939;52.00085300;4.17406100;2023-08-30T09:48:10;6.68;;;1.60;;
9799;SDS011;4939;52.00085300;4.17406100;2023-08-30T09:50:36;7.20;;;1.70;;
9799;SDS011;4939;52.00085300;4.17406100;2023-08-30T09:53:07;6.40;;;1.55;;
9799;SDS011;4939;52.00085300;4.17406100;2023-08-30T09:55:34;17.95;;;1.90;;
9799;SDS011;4939;52.00085300;4.17406100;2023-08-30T09:58:02;6.57;;;1.70;;
9799;SDS011;4939;52.00085300;4.17406100;2023-08-30T10:00:29;9.73;;;1.60;;
9799;SDS011;4939;52.00085300;4.17406100;2023-08-30T10:02:59;2.88;;;1.17;;
9799;SDS011;4939;52.00085300;4.17406100;2023-08-30T10:05:25;9.82;;;1.67;;
9799;SDS011;4939;52.00085300;4.17406100;2023-08-30T10:07:52;6.03;;;1.75;;
9799;SDS011;4939;52.00085300;4.17406100;2023-08-30T10:10:19;3.65;;;1.90;;
9799;SDS011;4939;52.00085300;4.17406100;2023-08-30T10:12:45;5.47;;;1.30;;
9799;SDS011;4939;52.00085300;4.17406100;2023-08-30T10:15:13;6.30;;;1.58;;
9799;SDS011;4939;52.00085300;4.17406100;2023-08-30T10:17:40;5.65;;;1.35;;
9799;SDS011;4939;52.00085300;4.17406100;2023-08-30T10:20:09;3.15;;;1.20;;
9799;SDS011;4939;52.00085300;4.17406100;2023-08-30T10:22:37;4.55;;;1.95;;
9799;SDS011;4939;52.00085300;4.17406100;2023-08-30T10:28:00;6.57;;;1.25;;
9799;SDS011;4939;52.00085300;4.17406100;2023-08-30T10:30:27;5.43;;;1.58;;
9799;SDS011;4939;52.00085300;4.17406100;2023-08-30T10:32:53;5.45;;;1.67;;
9799;SDS011;4939;52.00085300;4.17406100;2023-08-30T10:35:20;9.65;;;1.98;;
9799;SDS011;4939;52.00085300;4.17406100;2023-08-30T10:37:58;5.15;;;1.50;;
9799;SDS011;4939;52.00085300;4.17406100;2023-08-30T10:40:24;4.50;;;1.65;;
9799;SDS011;4939;52.00085300;4.17406100;2023-08-30T10:43:00;12.40;;;1.90;;
9799;SDS011;4939;52.00085300;4.17406100;2023-08-30T10:45:27;7.43;;;1.73;;
9799;SDS011;4939;52.00085300;4.17406100;2023-08-30T10:47:57;7.32;;;1.67;;
9799;SDS011;4939;52.00085300;4.17406100;2023-08-30T10:50:32;8.77;;;1.80;;
9799;SDS011;4939;52.00085300;4.17406100;2023-08-30T10:52:59;5.63;;;1.67;;
9799;SDS011;4939;52.00085300;4.17406100;2023-08-30T10:55:25;5.30;;;1.77;;
9799;SDS011;4939;52.00085300;4.17406100;2023-08-30T10:58:01;6.38;;;1.60;;
9799;SDS011;4939;52.00085300;4.17406100;2023-08-30T11:00:28;7.18;;;1.75;;
9799;SDS011;4939;52.00085300;4.17406100;2023-08-30T11:02:57;9.15;;;1.70;;
9799;SDS011;4939;52.00085300;4.17406100;2023-08-30T11:05:23;6.43;;;1.55;;
9799;SDS011;4939;52.00085300;4.17406100;2023-08-30T11:07:50;6.72;;;1.40;;
9799;SDS011;4939;52.00085300;4.17406100;2023-08-30T11:10:17;6.70;;;1.30;;
9799;SDS011;4939;52.00085300;4.17406100;2023-08-30T11:12:43;4.82;;;1.50;;
9799;SDS011;4939;52.00085300;4.17406100;2023-08-30T11:15:10;8.95;;;1.40;;
9799;SDS011;4939;52.00085300;4.17406100;2023-08-30T11:17:39;6.43;;;1.80;;
9799;SDS011;4939;52.00085300;4.17406100;2023-08-30T11:20:05;6.43;;;1.70;;
9799;SDS011;4939;52.00085300;4.17406100;2023-08-30T11:22:34;6.93;;;1.88;;
9799;SDS011;4939;52.00085300;4.17406100;2023-08-30T11:25:01;5.38;;;1.30;;
9799;SDS011;4939;52.00085300;4.17406100;2023-08-30T11:27:29;4.78;;;1.65;;
9799;SDS011;4939;52.00085300;4.17406100;2023-08-30T11:29:58;8.23;;;1.40;;
9799;SDS011;4939;52.00085300;4.17406100;2023-08-30T11:32:26;6.45;;;1.52;;
9799;SDS011;4939;52.00085300;4.17406100;2023-08-30T11:34:55;5.57;;;1.85;;
9799;SDS011;4939;52.00085300;4.17406100;2023-08-30T11:37:22;4.88;;;1.50;;
9799;SDS011;4939;52.00085300;4.17406100;2023-08-30T11:39:51;9.77;;;1.65;;
9799;SDS011;4939;52.00085300;4.17406100;2023-08-30T11:42:17;5.18;;;1.60;;
9799;SDS011;4939;52.00085300;4.17406100;2023-08-30T11:44:44;7.40;;;1.70;;
9799;SDS011;4939;52.00085300;4.17406100;2023-08-30T11:47:17;8.30;;;1.67;;
9799;SDS011;4939;52.00085300;4.17406100;2023-08-30T11:49:52;7.57;;;1.50;;
9799;SDS011;4939;52.00085300;4.17406100;2023-08-30T11:52:19;6.05;;;1.40;;
9799;SDS011;4939;52.00085300;4.17406100;2023-08-30T11:54:49;4.45;;;1.20;;
9799;SDS011;4939;52.00085300;4.17406100;2023-08-30T11:57:15;5.72;;;1.40;;
9799;SDS011;4939;52.00085300;4.17406100;2023-08-30T11:59:41;4.13;;;1.27;;
9799;SDS011;4939;52.00085300;4.17406100;2023-08-30T12:02:07;4.15;;;1.20;;
9799;SDS011;4939;52.00085300;4.17406100;2023-08-30T12:04:43;3.67;;;1.27;;
9799;SDS011;4939;52.00085300;4.17406100;2023-08-30T12:07:20;5.55;;;1.70;;
9799;SDS011;4939;52.00085300;4.17406100;2023-08-30T12:09:50;5.93;;;1.15;;
9799;SDS011;4939;52.00085300;4.17406100;2023-08-30T12:12:16;3.03;;;1.20;;
9799;SDS011;4939;52.00085300;4.17406100;2023-08-30T12:14:42;3.83;;;1.35;;
9799;SDS011;4939;52.00085300;4.17406100;2023-08-30T12:17:08;5.50;;;1.50;;
9799;SDS011;4939;52.00085300;4.17406100;2023-08-30T12:19:36;4.75;;;1.38;;
9799;SDS011;4939;52.00085300;4.17406100;2023-08-30T12:22:05;6.05;;;1.80;;
9799;SDS011;4939;52.00085300;4.17406100;2023-08-30T12:24:42;5.10;;;1.50;;
9799;SDS011;4939;52.00085300;4.17406100;2023-08-30T12:27:08;5.47;;;1.42;;
9799;SDS011;4939;52.00085300;4.17406100;2023-08-30T12:29:35;4.07;;;1.17;;
9799;SDS011;4939;52.00085300;4.17406100;2023-08-30T12:32:01;4.95;;;1.45;;
9799;SDS011;4939;52.00085300;4.17406100;2023-08-30T12:34:27;4.45;;;1.40;;
9799;SDS011;4939;52.00085300;4.17406100;2023-08-30T12:36:52;4.30;;;1.40;;
9799;SDS011;4939;52.00085300;4.17406100;2023-08-30T12:39:18;6.07;;;1.20;;
9799;SDS011;4939;52.00085300;4.17406100;2023-08-30T12:41:44;3.63;;;1.27;;
9799;SDS011;4939;52.00085300;4.17406100;2023-08-30T12:44:10;4.60;;;1.60;;
9799;SDS011;4939;52.00085300;4.17406100;2023-08-30T12:46:35;3.95;;;1.55;;
9799;SDS011;4939;52.00085300;4.17406100;2023-08-30T12:49:01;3.65;;;1.20;;
9799;SDS011;4939;52.00085300;4.17406100;2023-08-30T12:51:27;4.38;;;1.40;;
9799;SDS011;4939;52.00085300;4.17406100;2023-08-30T12:53:52;4.43;;;1.40;;
9799;SDS011;4939;52.00085300;4.17406100;2023-08-30T12:56:18;4.80;;;1.33;;
9799;SDS011;4939;52.00085300;4.17406100;2023-08-30T12:58:44;4.82;;;1.45;;
9799;SDS011;4939;52.00085300;4.17406100;2023-08-30T13:01:10;5.90;;;1.40;;
9799;SDS011;4939;52.00085300;4.17406100;2023-08-30T13:03:36;4.30;;;1.30;;
9799;SDS011;4939;52.00085300;4.17406100;2023-08-30T13:06:02;3.33;;;1.10;;
9799;SDS011;4939;52.00085300;4.17406100;2023-08-30T13:08:29;3.67;;;1.10;;
9799;SDS011;4939;52.00085300;4.17406100;2023-08-30T13:10:55;6.15;;;1.58;;